createdAt,value
2023-03-06T00:07:00.407Z,26.00
2023-03-06T00:09:28.337Z,24.90
2023-03-06T00:11:56.338Z,24.00
2023-03-06T00:14:24.243Z,27.20
2023-03-06T00:16:58.730Z,28.20
2023-03-06T00:21:55.509Z,24.80
2023-03-06T00:24:23.498Z,23.70
2023-03-06T00:26:51.497Z,30.30
2023-03-06T00:29:19.413Z,27.00
2023-03-06T00:31:48.122Z,27.70
2023-03-06T00:34:16.235Z,29.10
2023-03-06T00:36:44.325Z,30.50
2023-03-06T00:39:12.247Z,30.20
2023-03-06T00:41:40.261Z,27.60
2023-03-06T00:44:08.440Z,29.90
2023-03-06T00:46:37.024Z,29.40
2023-03-06T00:49:04.964Z,30.50
2023-03-06T00:51:33.126Z,33.50
2023-03-06T00:54:01.550Z,31.00
2023-03-06T00:56:30.247Z,27.60
2023-03-06T01:03:44.795Z,30.80
2023-03-06T01:06:12.769Z,30.50
2023-03-06T01:08:40.713Z,30.90
2023-03-06T01:11:08.817Z,29.80
2023-03-06T01:13:36.858Z,29.60
2023-03-06T01:16:08.074Z,30.00
2023-03-06T01:18:37.205Z,33.00
2023-03-06T01:21:05.667Z,35.70
2023-03-06T01:23:33.662Z,33.60
2023-03-06T01:26:02.282Z,33.10
2023-03-06T01:28:31.802Z,30.40
2023-03-06T01:31:04.976Z,29.40
2023-03-06T01:33:33.668Z,32.50
2023-03-06T01:36:11.723Z,32.20
2023-03-06T01:38:40.617Z,32.90
2023-03-06T01:41:10.961Z,29.60
2023-03-06T01:43:41.780Z,30.10
2023-03-06T01:46:30.866Z,29.00
2023-03-06T01:50:16.095Z,30.20
2023-03-06T01:52:50.512Z,32.70
2023-03-06T01:59:28.995Z,31.10
2023-03-06T02:02:01.881Z,29.70
2023-03-06T02:04:30.322Z,32.40
2023-03-06T02:07:06.081Z,33.90
2023-03-06T02:09:37.732Z,34.10
2023-03-06T02:12:13.575Z,32.20
2023-03-06T02:14:42.800Z,31.00
2023-03-06T02:17:14.328Z,33.60
2023-03-06T02:19:54.114Z,35.70
2023-03-06T02:22:25.555Z,36.50
2023-03-06T02:25:05.179Z,36.40
2023-03-06T02:27:34.945Z,36.70
2023-03-06T02:30:08.041Z,38.10
2023-03-06T02:32:36.322Z,36.30
2023-03-06T02:35:04.882Z,38.10
2023-03-06T02:37:33.096Z,40.00
2023-03-06T02:40:29.648Z,44.00
2023-03-06T02:42:58.909Z,43.50
2023-03-06T02:45:38.761Z,45.50
2023-03-06T02:48:07.812Z,43.10
2023-03-06T02:50:35.837Z,41.70
2023-03-06T02:53:04.380Z,46.70
2023-03-06T02:55:33.183Z,51.50
2023-03-06T02:58:02.546Z,51.60
2023-03-06T03:00:32.131Z,51.30
2023-03-06T03:03:29.170Z,47.50
2023-03-06T03:06:00.269Z,47.90
2023-03-06T03:08:32.406Z,47.30
2023-03-06T03:11:06.427Z,52.20
2023-03-06T03:13:39.670Z,54.80
2023-03-06T03:16:14.281Z,58.40
2023-03-06T03:18:48.271Z,58.60
2023-03-06T03:21:18.779Z,56.00
2023-03-06T03:23:48.704Z,58.10
2023-03-06T03:26:19.540Z,56.70
2023-03-06T03:28:53.000Z,55.30
2023-03-06T03:31:48.659Z,58.40
2023-03-06T03:34:17.176Z,62.90
2023-03-06T03:36:45.950Z,60.10
2023-03-06T03:39:14.232Z,58.70
2023-03-06T03:41:42.755Z,57.00
2023-03-06T03:44:11.184Z,55.90
2023-03-06T03:46:39.712Z,61.20
2023-03-06T03:49:11.765Z,61.80
2023-03-06T03:51:39.871Z,62.70
2023-03-06T03:58:53.257Z,64.10
2023-03-06T04:01:22.367Z,59.10
2023-03-06T04:03:51.196Z,61.10
2023-03-06T04:06:19.995Z,62.60
2023-03-06T04:08:48.398Z,67.30
2023-03-06T04:11:17.258Z,64.00
2023-03-06T04:13:45.382Z,63.20
2023-03-06T04:21:05.963Z,56.20
2023-03-06T04:23:34.639Z,64.70
2023-03-06T04:26:03.840Z,65.70
2023-03-06T04:28:31.999Z,57.80
2023-03-06T04:31:00.733Z,59.30
2023-03-06T04:38:15.053Z,53.80
2023-03-06T04:40:44.890Z,60.40
2023-03-06T04:43:13.276Z,54.70
2023-03-06T04:45:41.522Z,54.50
2023-03-06T04:48:14.350Z,50.40
2023-03-06T04:55:29.729Z,48.70
2023-03-06T04:57:59.125Z,54.60
2023-03-06T05:00:34.483Z,50.60
2023-03-06T05:03:02.758Z,47.60
2023-03-06T05:05:30.927Z,54.40
2023-03-06T05:07:59.160Z,58.60
2023-03-06T05:10:27.153Z,60.90
2023-03-06T05:12:55.049Z,49.70
2023-03-06T05:15:23.680Z,49.90
2023-03-06T05:22:02.202Z,44.40
2023-03-06T05:24:30.986Z,46.40
2023-03-06T05:26:59.312Z,47.00
2023-03-06T05:29:47.006Z,51.90
2023-03-06T05:32:17.142Z,52.30
2023-03-06T05:34:48.443Z,51.40
2023-03-06T05:37:16.403Z,49.50
2023-03-06T05:39:44.428Z,48.20
2023-03-06T05:42:12.390Z,53.20
2023-03-06T05:44:42.008Z,51.60
2023-03-06T05:47:11.420Z,54.40
2023-03-06T05:49:40.286Z,49.40
2023-03-06T05:52:08.799Z,45.60
2023-03-06T05:54:37.477Z,44.30
2023-03-06T05:57:06.259Z,43.70
2023-03-06T05:59:34.510Z,49.30
2023-03-06T06:02:04.080Z,51.70
2023-03-06T06:04:32.428Z,56.50
2023-03-06T06:07:01.853Z,61.90
2023-03-06T06:09:30.551Z,57.10
2023-03-06T06:12:01.830Z,51.70
2023-03-06T06:14:33.806Z,53.00
2023-03-06T06:17:07.784Z,67.20
2023-03-06T06:19:36.032Z,59.30
2023-03-06T06:22:04.926Z,62.30
2023-03-06T06:24:33.162Z,70.00
2023-03-06T06:27:03.725Z,62.50
2023-03-06T06:29:32.678Z,56.50
2023-03-06T06:32:01.755Z,54.20
2023-03-06T06:34:30.754Z,56.80
2023-03-06T06:37:00.366Z,56.20
2023-03-06T06:39:30.819Z,57.90
2023-03-06T06:42:15.444Z,54.60
2023-03-06T06:44:51.660Z,48.50
2023-03-06T06:47:24.110Z,42.60
2023-03-06T06:49:56.838Z,45.00
2023-03-06T06:52:29.213Z,45.90
2023-03-06T06:54:58.146Z,51.80
2023-03-06T06:57:26.661Z,102.60
2023-03-06T06:59:54.858Z,59.00
2023-03-06T07:02:23.480Z,53.80
2023-03-06T07:05:43.416Z,48.20
2023-03-06T07:08:11.644Z,48.40
2023-03-06T07:10:40.178Z,56.00
2023-03-06T07:13:09.114Z,60.80
2023-03-06T07:15:38.502Z,72.50
2023-03-06T07:18:06.731Z,56.40
2023-03-06T07:20:34.972Z,52.20
2023-03-06T07:23:03.278Z,46.70
2023-03-06T07:25:33.481Z,49.70
2023-03-06T07:28:01.724Z,51.80
2023-03-06T07:30:30.349Z,49.20
2023-03-06T07:33:26.976Z,52.00
2023-03-06T07:35:55.157Z,52.10
2023-03-06T07:38:23.342Z,47.10
2023-03-06T07:40:57.461Z,51.60
2023-03-06T07:43:26.254Z,51.90
2023-03-06T07:46:01.214Z,55.90
2023-03-06T07:48:29.472Z,52.40
2023-03-06T07:50:58.051Z,39.60
2023-03-06T07:53:26.861Z,45.30
2023-03-06T07:55:55.986Z,40.80
2023-03-06T07:58:24.906Z,39.90
2023-03-06T08:00:54.125Z,63.10
2023-03-06T08:03:23.427Z,61.20
2023-03-06T08:05:51.543Z,77.80
2023-03-06T08:08:19.741Z,47.80
2023-03-06T08:10:49.493Z,40.50
2023-03-06T08:17:29.432Z,41.80
2023-03-06T08:19:58.325Z,44.40
2023-03-06T08:22:27.262Z,42.70
2023-03-06T08:24:56.470Z,40.70
2023-03-06T08:27:24.643Z,48.90
2023-03-06T08:29:54.034Z,35.80
2023-03-06T08:32:22.763Z,36.30
2023-03-06T08:34:51.801Z,34.50
2023-03-06T08:37:19.987Z,35.50
2023-03-06T08:39:48.311Z,34.80
2023-03-06T08:42:16.842Z,30.90
2023-03-06T08:44:45.576Z,26.10
2023-03-06T08:47:13.975Z,29.40
2023-03-06T08:49:42.104Z,27.60
2023-03-06T08:52:11.231Z,31.10
2023-03-06T08:54:39.834Z,25.10
2023-03-06T08:57:09.350Z,26.10
2023-03-06T08:59:38.218Z,21.00
2023-03-06T09:02:07.831Z,20.70
2023-03-06T09:04:36.435Z,18.80
2023-03-06T09:07:04.797Z,19.60
2023-03-06T09:09:33.784Z,18.60
2023-03-06T09:12:02.656Z,18.80
2023-03-06T09:14:31.582Z,17.80
2023-03-06T09:16:59.880Z,20.60
2023-03-06T09:19:28.660Z,22.40
2023-03-06T09:22:01.190Z,19.90
2023-03-06T09:24:30.017Z,19.90
2023-03-06T09:26:58.775Z,21.60
2023-03-06T09:29:26.903Z,20.20
2023-03-06T09:31:55.486Z,18.10
2023-03-06T09:34:23.776Z,19.70
2023-03-06T09:36:57.103Z,20.30
2023-03-06T09:39:27.347Z,25.10
2023-03-06T09:41:57.826Z,20.50
2023-03-06T09:44:31.144Z,21.40
2023-03-06T09:47:21.163Z,28.30
2023-03-06T09:49:55.676Z,19.30
2023-03-06T09:52:29.616Z,20.10
2023-03-06T09:55:09.326Z,30.50
2023-03-06T09:57:42.710Z,23.50
2023-03-06T10:00:35.937Z,23.20
2023-03-06T10:04:23.180Z,21.10
2023-03-06T10:09:43.766Z,19.30
2023-03-06T10:12:26.157Z,22.80
2023-03-06T10:15:13.450Z,19.90
2023-03-06T10:17:43.553Z,15.90
2023-03-06T10:20:24.040Z,14.40
2023-03-06T10:23:05.149Z,14.90
2023-03-06T10:25:50.160Z,15.00
2023-03-06T10:28:29.659Z,15.00
2023-03-06T10:31:20.043Z,13.50
2023-03-06T10:38:31.964Z,14.60
2023-03-06T10:43:43.946Z,10.30
2023-03-06T10:46:51.294Z,11.30
2023-03-06T10:49:35.103Z,9.00
2023-03-06T10:54:49.390Z,11.30
2023-03-06T11:02:37.496Z,13.50
2023-03-06T11:05:19.052Z,13.30
2023-03-06T11:08:25.342Z,14.40
2023-03-06T11:11:03.042Z,13.10
2023-03-06T11:13:41.181Z,8.20
2023-03-06T11:16:32.831Z,12.00
2023-03-06T11:19:10.507Z,11.30
2023-03-06T11:21:40.564Z,10.40
2023-03-06T11:24:21.860Z,9.80
2023-03-06T11:27:09.258Z,10.20
2023-03-06T11:29:43.549Z,9.20
2023-03-06T11:32:21.161Z,9.80
2023-03-06T11:35:06.082Z,9.50
2023-03-06T11:37:46.618Z,11.10
2023-03-06T11:40:24.920Z,14.50
2023-03-06T11:48:03.951Z,13.70
2023-03-06T11:50:39.926Z,11.70
2023-03-06T11:53:15.963Z,11.70
2023-03-06T11:56:01.305Z,11.00
2023-03-06T11:58:35.297Z,10.70
2023-03-06T12:01:13.995Z,9.10
2023-03-06T12:08:19.906Z,11.90
2023-03-06T12:10:57.798Z,15.60
2023-03-06T12:13:56.786Z,20.00
2023-03-06T12:17:05.903Z,22.90
2023-03-06T12:19:46.664Z,12.80
2023-03-06T12:22:33.532Z,16.30
2023-03-06T12:25:31.159Z,10.50
2023-03-06T12:32:35.373Z,12.20
2023-03-06T12:35:13.408Z,15.60
2023-03-06T12:37:41.673Z,11.70
2023-03-06T12:40:40.365Z,11.70
2023-03-06T12:43:20.983Z,15.00
2023-03-06T12:46:28.580Z,11.80
2023-03-06T12:49:32.557Z,12.20
2023-03-06T12:52:04.697Z,12.80
2023-03-06T12:54:37.858Z,10.00
2023-03-06T12:57:08.736Z,12.00
2023-03-06T12:59:38.102Z,11.40
2023-03-06T13:02:37.743Z,10.60
2023-03-06T13:05:18.783Z,9.70
2023-03-06T13:08:18.503Z,10.20
2023-03-06T13:11:06.814Z,12.00
2023-03-06T13:13:44.004Z,15.60
2023-03-06T13:16:32.361Z,12.00
2023-03-06T13:19:00.693Z,11.20
2023-03-06T13:21:50.264Z,10.00
2023-03-06T13:24:27.861Z,8.00
2023-03-06T13:27:10.510Z,8.10
2023-03-06T13:29:38.731Z,7.60
2023-03-06T13:32:29.374Z,9.40
2023-03-06T13:34:57.620Z,9.50
2023-03-06T13:37:25.587Z,9.90
2023-03-06T13:39:59.841Z,11.70
2023-03-06T13:42:28.537Z,11.20
2023-03-06T13:45:15.443Z,9.90
2023-03-06T13:52:42.779Z,8.60
2023-03-06T13:55:31.739Z,8.30
2023-03-06T13:58:18.043Z,10.70
2023-03-06T14:01:21.401Z,13.00
2023-03-06T14:04:11.137Z,11.00
2023-03-06T14:06:40.777Z,8.30
2023-03-06T14:09:45.832Z,9.10
2023-03-06T14:12:26.660Z,9.10
2023-03-06T14:14:58.561Z,9.40
2023-03-06T14:17:33.404Z,12.70
2023-03-06T14:20:13.448Z,9.00
2023-03-06T14:26:54.547Z,10.70
2023-03-06T14:29:26.376Z,9.20
2023-03-06T14:31:57.985Z,8.70
2023-03-06T14:35:06.696Z,16.50
2023-03-06T14:37:37.592Z,12.10
2023-03-06T14:40:11.451Z,8.80
2023-03-06T14:42:39.928Z,9.30
2023-03-06T14:45:17.160Z,7.90
2023-03-06T14:47:53.989Z,7.70
2023-03-06T14:50:27.819Z,17.70
2023-03-06T14:53:01.082Z,10.60
2023-03-06T14:55:33.457Z,8.90
2023-03-06T14:58:04.289Z,8.70
2023-03-06T15:00:42.266Z,8.50
2023-03-06T15:03:20.903Z,9.00
2023-03-06T15:05:51.180Z,9.40
2023-03-06T15:13:26.465Z,11.10
2023-03-06T15:16:22.376Z,10.10
2023-03-06T15:19:20.069Z,24.40
2023-03-06T15:21:51.950Z,11.60
2023-03-06T15:24:38.360Z,15.10
2023-03-06T15:27:16.590Z,11.50
2023-03-06T15:29:44.647Z,9.40
2023-03-06T15:32:15.794Z,13.10
2023-03-06T15:34:43.808Z,16.70
2023-03-06T15:37:28.962Z,20.10
2023-03-06T15:40:09.555Z,13.30
2023-03-06T15:42:37.853Z,24.90
2023-03-06T15:45:35.093Z,227.90
2023-03-06T15:48:17.223Z,22.90
2023-03-06T15:50:45.377Z,27.90
2023-03-06T15:53:13.373Z,21.50
2023-03-06T15:55:41.361Z,27.60
2023-03-06T15:58:15.276Z,33.90
2023-03-06T16:00:44.134Z,28.20
2023-03-06T16:03:13.625Z,17.50
2023-03-06T16:05:41.793Z,18.00
2023-03-06T16:08:15.301Z,18.90
2023-03-06T16:10:46.914Z,13.10
2023-03-06T16:14:06.475Z,12.30
2023-03-06T16:16:37.721Z,11.20
2023-03-06T16:19:26.715Z,12.00
2023-03-06T16:22:00.258Z,14.90
2023-03-06T16:24:29.340Z,12.90
2023-03-06T16:27:01.687Z,15.60
2023-03-06T16:29:30.642Z,15.30
2023-03-06T16:32:00.912Z,18.60
2023-03-06T16:35:08.291Z,19.70
2023-03-06T16:37:36.774Z,23.50
2023-03-06T16:40:07.986Z,23.00
2023-03-06T16:42:39.548Z,22.80
2023-03-06T16:45:08.438Z,21.80
2023-03-06T16:47:45.541Z,20.70
2023-03-06T16:50:25.962Z,23.80
2023-03-06T16:52:56.497Z,82.20
2023-03-06T16:55:27.040Z,29.50
2023-03-06T17:02:41.572Z,22.50
2023-03-06T17:05:12.113Z,30.00
2023-03-06T17:07:41.236Z,27.00
2023-03-06T17:14:20.245Z,27.90
2023-03-06T17:16:48.240Z,24.20
2023-03-06T17:19:16.376Z,23.00
2023-03-06T17:21:44.410Z,24.10
2023-03-06T17:24:12.366Z,28.00
2023-03-06T17:26:40.363Z,27.40
2023-03-06T17:29:09.706Z,27.40
2023-03-06T17:31:38.103Z,29.00
2023-03-06T17:34:06.468Z,31.40
2023-03-06T17:36:34.839Z,30.90
2023-03-06T17:39:04.134Z,32.20
2023-03-06T17:41:34.222Z,33.90
2023-03-06T17:44:02.284Z,33.80
2023-03-06T17:46:32.270Z,38.00
2023-03-06T17:49:00.609Z,32.40
2023-03-06T17:51:28.790Z,34.70
2023-03-06T17:53:57.641Z,36.90
2023-03-06T17:56:26.733Z,37.90
2023-03-06T17:58:55.552Z,37.20
2023-03-06T18:01:27.591Z,36.20
2023-03-06T18:03:56.925Z,40.50
2023-03-06T18:06:27.742Z,38.70
2023-03-06T18:08:56.359Z,39.60
2023-03-06T18:11:24.773Z,37.00
2023-03-06T18:13:53.008Z,42.40
2023-03-06T18:16:23.307Z,41.50
2023-03-06T18:18:53.518Z,50.20
2023-03-06T18:21:23.331Z,59.50
2023-03-06T18:23:51.473Z,52.40
2023-03-06T18:26:25.657Z,49.00
2023-03-06T18:28:56.428Z,49.40
2023-03-06T18:31:28.341Z,55.40
2023-03-06T18:33:59.266Z,49.20
2023-03-06T18:36:31.331Z,49.80
2023-03-06T18:39:01.062Z,48.30
2023-03-06T18:41:30.444Z,43.80
2023-03-06T18:44:00.793Z,48.20
2023-03-06T18:46:38.286Z,39.80
2023-03-06T18:49:07.765Z,39.40
2023-03-06T18:51:35.682Z,37.20
2023-03-06T18:54:05.328Z,33.40
2023-03-06T18:56:34.191Z,34.00
2023-03-06T18:59:05.580Z,37.70
2023-03-06T19:01:34.341Z,37.80
2023-03-06T19:04:04.613Z,36.90
2023-03-06T19:06:32.975Z,36.90
2023-03-06T19:09:02.445Z,37.30
2023-03-06T19:11:32.587Z,44.30
2023-03-06T19:14:00.692Z,41.60
2023-03-06T19:16:31.688Z,39.00
2023-03-06T19:18:59.685Z,42.80
2023-03-06T19:21:28.354Z,29.40
2023-03-06T19:23:57.434Z,32.80
2023-03-06T19:26:25.531Z,35.10
2023-03-06T19:28:53.761Z,39.40
2023-03-06T19:31:25.196Z,36.70
2023-03-06T19:33:54.921Z,39.90
2023-03-06T19:36:27.854Z,35.30
2023-03-06T19:38:57.340Z,34.40
2023-03-06T19:41:26.652Z,36.30
2023-03-06T19:43:58.435Z,36.50
2023-03-06T19:46:27.711Z,37.40
2023-03-06T19:48:58.055Z,40.20
2023-03-06T19:51:27.267Z,35.90
2023-03-06T19:53:56.418Z,37.20
2023-03-06T19:56:29.418Z,47.30
2023-03-06T19:58:57.899Z,45.20
2023-03-06T20:01:27.526Z,45.00
2023-03-06T20:03:59.455Z,47.70
2023-03-06T20:06:30.301Z,45.90
2023-03-06T20:08:58.789Z,46.30
2023-03-06T20:11:30.247Z,39.80
2023-03-06T20:14:00.765Z,40.30
2023-03-06T20:16:32.373Z,41.80
2023-03-06T20:19:02.603Z,43.00
2023-03-06T20:21:38.289Z,46.10
2023-03-06T20:24:08.676Z,40.00
2023-03-06T20:26:38.809Z,41.40
2023-03-06T20:29:06.943Z,47.60
2023-03-06T20:31:35.334Z,43.50
2023-03-06T20:34:05.056Z,46.80
2023-03-06T20:36:41.351Z,62.60
2023-03-06T20:39:13.380Z,55.00
2023-03-06T20:41:41.363Z,52.80
2023-03-06T20:44:17.434Z,48.80
2023-03-06T20:46:46.381Z,47.20
2023-03-06T20:49:14.884Z,51.90
2023-03-06T20:51:42.932Z,53.80
2023-03-06T20:54:13.526Z,51.80
2023-03-06T20:56:43.377Z,48.90
2023-03-06T20:59:14.197Z,44.70
2023-03-06T21:01:44.358Z,38.50
2023-03-06T21:04:14.538Z,40.60
2023-03-06T21:06:46.910Z,40.20
2023-03-06T21:09:18.989Z,40.80
2023-03-06T21:11:50.777Z,38.20
2023-03-06T21:14:28.776Z,36.20
2023-03-06T21:16:57.272Z,36.60
2023-03-06T21:19:28.723Z,37.20
2023-03-06T21:22:01.750Z,39.70
2023-03-06T21:24:39.698Z,39.90
2023-03-06T21:27:07.614Z,41.00
2023-03-06T21:29:35.560Z,40.70
2023-03-06T21:32:03.739Z,41.90
2023-03-06T21:34:31.763Z,41.90
2023-03-06T21:36:59.664Z,41.50
2023-03-06T21:39:27.706Z,41.70
2023-03-06T21:41:56.532Z,41.40
2023-03-06T21:44:25.237Z,41.40
2023-03-06T21:46:56.553Z,41.40
2023-03-06T21:49:26.635Z,47.50
2023-03-06T21:51:55.012Z,45.50
2023-03-06T21:54:23.296Z,47.90
2023-03-06T21:56:51.348Z,45.60
2023-03-06T21:59:20.796Z,42.10
2023-03-06T22:01:49.144Z,41.90
2023-03-06T22:04:17.814Z,41.10
2023-03-06T22:06:46.219Z,45.50
2023-03-06T22:09:17.116Z,43.10
2023-03-06T22:11:45.690Z,45.20
2023-03-06T22:14:14.959Z,44.30
2023-03-06T22:16:42.979Z,42.60
2023-03-06T22:19:10.880Z,40.30
2023-03-06T22:21:38.748Z,44.20
2023-03-06T22:24:06.945Z,43.40
2023-03-06T22:26:34.931Z,41.90
2023-03-06T22:29:02.804Z,44.30
2023-03-06T22:31:30.860Z,40.00
2023-03-06T22:34:00.512Z,39.90
2023-03-06T22:36:30.855Z,37.20
2023-03-06T22:39:01.278Z,38.10
2023-03-06T22:41:30.183Z,39.20
2023-03-06T22:44:01.164Z,37.80
2023-03-06T22:46:30.300Z,36.90
2023-03-06T22:49:00.047Z,35.00
2023-03-06T22:51:28.822Z,37.90
2023-03-06T22:53:56.869Z,39.30
2023-03-06T22:56:25.299Z,40.40
2023-03-06T22:58:53.412Z,41.40
2023-03-06T23:01:25.403Z,40.00
2023-03-06T23:03:56.483Z,39.70
2023-03-06T23:06:28.638Z,40.30
2023-03-06T23:09:06.007Z,37.20
2023-03-06T23:11:53.044Z,38.40
2023-03-06T23:14:40.004Z,41.70
2023-03-06T23:17:26.924Z,41.30
2023-03-06T23:20:14.217Z,43.30
2023-03-06T23:23:00.475Z,42.20
2023-03-06T23:25:44.177Z,41.40
2023-03-06T23:28:12.384Z,39.30
2023-03-06T23:30:41.731Z,39.70
2023-03-06T23:33:10.584Z,40.60
2023-03-06T23:35:41.511Z,40.00
2023-03-06T23:38:09.425Z,43.90
2023-03-06T23:40:40.523Z,46.00
2023-03-06T23:43:08.498Z,45.80
2023-03-06T23:45:37.164Z,45.10
2023-03-06T23:48:08.058Z,43.20
2023-03-06T23:50:39.800Z,45.10
2023-03-06T23:53:07.693Z,43.70
2023-03-06T23:55:35.564Z,44.50
2023-03-06T23:58:03.576Z,43.50
